createdAt,value
2019-05-06T00:00:19.180Z,14.08
2019-05-06T00:02:47.510Z,14.08
2019-05-06T00:05:15.843Z,13.82
2019-05-06T00:07:45.752Z,14.86
2019-05-06T00:10:44.807Z,14.11
2019-05-06T00:13:14.003Z,14.51
2019-05-06T00:15:43.679Z,13.73
2019-05-06T00:18:13.830Z,13.77
2019-05-06T00:20:43.834Z,13.99
2019-05-06T00:23:16.403Z,14.93
2019-05-06T00:25:59.776Z,14.98
2019-05-06T00:28:29.755Z,14.74
2019-05-06T00:31:10.430Z,15.24
2019-05-06T00:33:34.095Z,15.30
2019-05-06T00:36:04.536Z,15.27
2019-05-06T00:38:34.085Z,15.36
2019-05-06T00:41:07.022Z,15.37
2019-05-06T00:43:35.275Z,15.66
2019-05-06T00:46:04.733Z,15.74
2019-05-06T00:48:34.166Z,15.48
2019-05-06T00:51:04.488Z,15.24
2019-05-06T00:53:34.841Z,14.96
2019-05-06T00:56:04.540Z,15.11
2019-05-06T00:58:34.826Z,14.85
2019-05-06T01:01:04.631Z,14.89
2019-05-06T01:03:34.769Z,14.95
2019-05-06T01:06:04.738Z,15.35
2019-05-06T01:08:34.874Z,15.56
2019-05-06T01:11:04.566Z,15.55
2019-05-06T01:13:35.116Z,15.55
2019-05-06T01:16:04.236Z,15.43
2019-05-06T01:18:34.082Z,14.80
2019-05-06T01:21:11.250Z,14.64
2019-05-06T01:23:44.009Z,14.47
2019-05-06T01:26:15.029Z,14.44
2019-05-06T01:28:43.907Z,14.27
2019-05-06T01:31:13.974Z,14.14
2019-05-06T01:33:42.383Z,14.19
2019-05-06T01:36:10.634Z,14.51
2019-05-06T01:38:44.301Z,14.59
2019-05-06T01:41:30.656Z,15.09
2019-05-06T01:43:59.044Z,15.06
2019-05-06T01:46:27.311Z,15.04
2019-05-06T01:48:55.594Z,14.86
2019-05-06T01:51:24.279Z,15.13
2019-05-06T01:53:54.384Z,15.00
2019-05-06T01:56:24.130Z,15.19
2019-05-06T01:58:53.592Z,14.76
2019-05-06T02:01:22.099Z,15.00
2019-05-06T02:03:50.399Z,15.34
2019-05-06T02:06:18.680Z,15.03
2019-05-06T02:08:46.925Z,15.04
2019-05-06T02:11:15.202Z,14.95
2019-05-06T02:13:44.285Z,15.22
2019-05-06T02:16:14.616Z,14.99
2019-05-06T02:18:44.892Z,15.01
2019-05-06T02:21:29.845Z,15.07
2019-05-06T02:26:49.483Z,13.83
2019-05-06T02:29:19.400Z,15.84
2019-05-06T02:31:56.651Z,14.24
2019-05-06T02:34:45.823Z,13.66
2019-05-06T02:37:18.398Z,13.71
2019-05-06T02:39:47.659Z,14.35
2019-05-06T02:42:15.928Z,14.88
2019-05-06T02:44:44.477Z,14.95
2019-05-06T02:47:34.266Z,14.38
2019-05-06T02:50:13.529Z,14.02
2019-05-06T02:52:44.068Z,14.39
2019-05-06T02:55:12.978Z,14.25
2019-05-06T02:57:43.882Z,14.44
2019-05-06T03:00:18.555Z,13.94
2019-05-06T03:02:48.113Z,13.86
2019-05-06T03:05:17.749Z,14.10
2019-05-06T03:07:46.040Z,14.36
2019-05-06T03:10:17.051Z,14.53
2019-05-06T03:12:45.306Z,14.42
2019-05-06T03:15:16.603Z,14.16
2019-05-06T03:17:43.828Z,14.26
2019-05-06T03:20:19.622Z,13.95
2019-05-06T03:22:54.439Z,13.99
2019-05-06T03:25:24.198Z,13.76
2019-05-06T03:27:53.210Z,13.73
2019-05-06T03:30:25.370Z,13.98
2019-05-06T03:33:28.120Z,13.62
2019-05-06T03:35:36.201Z,13.40
2019-05-06T03:37:53.264Z,13.67
2019-05-06T03:40:23.094Z,13.48
2019-05-06T03:42:53.906Z,13.48
2019-05-06T03:45:23.768Z,13.70
2019-05-06T03:47:59.851Z,13.87
2019-05-06T03:50:28.092Z,13.77
2019-05-06T03:52:56.701Z,14.24
2019-05-06T03:55:25.729Z,13.37
2019-05-06T03:57:56.712Z,13.78
2019-05-06T04:00:25.113Z,13.84
2019-05-06T04:02:53.791Z,13.15
2019-05-06T04:05:23.849Z,13.45
2019-05-06T04:07:53.731Z,13.40
2019-05-06T04:10:22.876Z,13.57
2019-05-06T04:12:53.488Z,13.88
2019-05-06T04:15:22.975Z,13.87
2019-05-06T04:17:54.332Z,13.65
2019-05-06T04:20:43.393Z,13.39
2019-05-06T04:23:23.446Z,13.34
2019-05-06T04:25:56.137Z,12.96
2019-05-06T04:28:28.669Z,12.96
2019-05-06T04:30:57.356Z,13.38
2019-05-06T04:33:26.463Z,13.29
2019-05-06T04:35:54.819Z,13.11
2019-05-06T04:38:24.221Z,12.75
2019-05-06T04:40:53.855Z,12.74
2019-05-06T04:43:26.950Z,12.95
2019-05-06T04:45:54.300Z,12.96
2019-05-06T04:48:23.894Z,12.91
2019-05-06T04:50:53.678Z,13.93
2019-05-06T04:53:23.805Z,13.66
2019-05-06T04:55:53.899Z,13.34
2019-05-06T04:58:23.405Z,13.77
2019-05-06T05:00:53.084Z,13.53
2019-05-06T05:03:23.146Z,13.04
2019-05-06T05:05:52.940Z,13.63
2019-05-06T05:08:23.412Z,13.27
2019-05-06T05:10:58.744Z,13.41
2019-05-06T05:13:37.893Z,13.96
2019-05-06T05:16:12.704Z,14.40
2019-05-06T05:18:42.521Z,14.22
2019-05-06T05:21:11.906Z,14.04
2019-05-06T05:26:35.724Z,14.11
2019-05-06T05:29:04.037Z,14.45
2019-05-06T05:31:33.234Z,14.04
2019-05-06T05:34:02.190Z,13.63
2019-05-06T05:36:32.598Z,13.36
2019-05-06T05:39:03.354Z,13.89
2019-05-06T05:41:33.127Z,13.56
2019-05-06T05:44:06.438Z,12.98
2019-05-06T05:46:35.743Z,12.91
2019-05-06T05:49:05.630Z,13.70
2019-05-06T05:51:34.008Z,13.09
2019-05-06T05:54:02.405Z,13.31
2019-05-06T05:56:33.021Z,13.30
2019-05-06T05:59:03.039Z,13.61
2019-05-06T06:01:32.631Z,14.20
2019-05-06T06:04:03.179Z,14.48
2019-05-06T06:06:33.176Z,14.45
2019-05-06T06:09:03.156Z,13.56
2019-05-06T06:11:47.994Z,13.90
2019-05-06T06:14:29.760Z,13.41
2019-05-06T06:17:08.231Z,13.43
2019-05-06T06:19:42.541Z,14.27
2019-05-06T06:22:18.117Z,13.38
2019-05-06T06:24:47.132Z,14.13
2019-05-06T06:27:15.390Z,13.59
2019-05-06T06:29:45.365Z,13.40
2019-05-06T06:32:18.020Z,13.63
2019-05-06T06:34:52.116Z,13.71
2019-05-06T06:37:29.106Z,13.85
2019-05-06T06:40:02.526Z,14.42
2019-05-06T06:42:33.365Z,13.92
2019-05-06T06:45:03.288Z,14.37
2019-05-06T06:47:32.019Z,14.82
2019-05-06T06:50:02.615Z,15.12
2019-05-06T06:52:32.526Z,14.58
2019-05-06T06:55:02.386Z,14.52
2019-05-06T06:57:47.118Z,14.15
2019-05-06T07:00:33.690Z,14.97
2019-05-06T07:03:12.256Z,14.54
2019-05-06T07:05:45.450Z,14.86
2019-05-06T07:08:14.979Z,14.75
2019-05-06T07:10:43.543Z,15.17
2019-05-06T07:13:14.109Z,15.83
2019-05-06T07:15:42.747Z,15.63
2019-05-06T07:18:13.504Z,15.09
2019-05-06T07:20:52.567Z,15.19
2019-05-06T07:23:24.585Z,16.06
2019-05-06T07:25:53.974Z,16.37
2019-05-06T07:28:23.385Z,15.75
2019-05-06T07:30:53.129Z,15.84
2019-05-06T07:33:22.907Z,15.31
2019-05-06T07:35:52.983Z,16.10
2019-05-06T07:38:23.063Z,15.49
2019-05-06T07:40:53.406Z,16.60
2019-05-06T07:43:38.570Z,16.40
2019-05-06T07:46:12.186Z,15.35
2019-05-06T07:48:42.771Z,15.39
2019-05-06T07:51:12.455Z,15.69
2019-05-06T07:53:42.672Z,15.85
2019-05-06T07:56:12.616Z,15.86
2019-05-06T07:58:43.385Z,15.84
2019-05-06T08:01:13.557Z,16.55
2019-05-06T08:03:42.769Z,15.25
2019-05-06T08:06:13.195Z,15.60
2019-05-06T08:08:43.330Z,15.35
2019-05-06T08:11:12.378Z,14.42
2019-05-06T08:13:43.180Z,14.66
2019-05-06T08:16:13.127Z,16.38
2019-05-06T08:18:42.698Z,15.78
2019-05-06T08:21:15.235Z,15.25
2019-05-06T08:23:48.035Z,15.58
2019-05-06T08:26:17.860Z,15.18
2019-05-06T08:28:46.347Z,15.32
2019-05-06T08:31:16.377Z,15.72
2019-05-06T08:33:45.333Z,16.85
2019-05-06T08:36:15.345Z,15.38
2019-05-06T08:38:54.014Z,15.62
2019-05-06T08:41:22.796Z,15.76
2019-05-06T08:43:52.828Z,15.56
2019-05-06T08:46:23.466Z,16.28
2019-05-06T08:48:52.581Z,16.09
2019-05-06T08:51:28.592Z,15.30
2019-05-06T08:54:03.077Z,14.67
2019-05-06T08:56:32.096Z,14.37
2019-05-06T08:59:00.557Z,14.06
2019-05-06T09:01:32.556Z,14.61
2019-05-06T09:04:11.864Z,14.93
2019-05-06T09:06:34.212Z,16.54
2019-05-06T09:09:02.430Z,15.82
2019-05-06T09:11:32.204Z,17.26
2019-05-06T09:14:03.145Z,17.52
2019-05-06T09:16:32.936Z,17.97
2019-05-06T09:19:04.266Z,18.20
2019-05-06T09:21:33.536Z,16.09
2019-05-06T09:24:02.396Z,16.12
2019-05-06T09:26:32.521Z,16.51
2019-05-06T09:29:17.809Z,15.38
2019-05-06T09:31:47.708Z,15.51
2019-05-06T09:34:23.533Z,15.42
2019-05-06T09:37:09.655Z,15.48
2019-05-06T09:39:37.952Z,15.82
2019-05-06T09:42:06.339Z,16.01
2019-05-06T09:44:34.716Z,15.52
2019-05-06T09:47:03.318Z,15.57
2019-05-06T09:49:34.180Z,15.28
2019-05-06T09:52:02.650Z,16.08
2019-05-06T09:54:35.387Z,15.82
2019-05-06T09:57:08.115Z,16.41
2019-05-06T09:59:36.375Z,16.15
2019-05-06T10:02:05.223Z,16.68
2019-05-06T10:04:33.592Z,16.96
2019-05-06T10:07:02.682Z,17.46
2019-05-06T10:09:32.612Z,17.72
2019-05-06T10:12:02.087Z,17.07
2019-05-06T10:14:32.189Z,16.65
2019-05-06T10:17:04.308Z,17.81
2019-05-06T10:19:32.121Z,17.33
2019-05-06T10:22:00.531Z,17.69
2019-05-06T10:24:28.799Z,18.12
2019-05-06T10:26:58.843Z,18.25
2019-05-06T10:29:32.589Z,17.95
2019-05-06T10:32:05.365Z,16.76
2019-05-06T10:34:33.643Z,16.51
2019-05-06T10:37:24.614Z,16.83
2019-05-06T10:40:40.329Z,17.15
2019-05-06T10:43:18.297Z,17.24
2019-05-06T10:45:46.662Z,17.24
2019-05-06T10:48:15.960Z,17.56
2019-05-06T10:50:45.969Z,17.45
2019-05-06T10:53:23.358Z,16.83
2019-05-06T10:55:53.893Z,17.01
2019-05-06T10:58:22.716Z,17.00
2019-05-06T11:00:53.172Z,16.97
2019-05-06T11:03:23.039Z,17.65
2019-05-06T11:05:53.520Z,17.24
2019-05-06T11:08:22.193Z,16.06
2019-05-06T11:10:53.488Z,16.50
2019-05-06T11:13:24.189Z,16.40
2019-05-06T11:15:52.808Z,16.24
2019-05-06T11:18:23.356Z,16.28
2019-05-06T11:20:53.042Z,15.73
2019-05-06T11:23:21.961Z,16.41
2019-05-06T11:25:52.396Z,16.24
2019-05-06T11:28:38.369Z,16.59
2019-05-06T11:31:24.370Z,15.87
2019-05-06T11:34:12.635Z,16.58
2019-05-06T11:36:52.421Z,17.70
2019-05-06T11:39:23.320Z,17.83
2019-05-06T11:42:08.067Z,19.21
2019-05-06T11:44:23.610Z,21.12
2019-05-06T11:46:52.299Z,22.41
2019-05-06T11:49:23.061Z,21.33
2019-05-06T11:51:50.792Z,22.27
2019-05-06T11:54:20.815Z,22.98
2019-05-06T11:56:54.331Z,20.72
2019-05-06T11:59:22.608Z,20.39
2019-05-06T12:01:53.955Z,18.48
2019-05-06T12:04:23.011Z,20.51
2019-05-06T12:06:54.068Z,21.10
2019-05-06T12:09:22.281Z,22.42
2019-05-06T12:11:52.846Z,23.12
2019-05-06T12:14:22.702Z,24.36
2019-05-06T12:16:55.086Z,23.28
2019-05-06T12:19:22.685Z,24.51
2019-05-06T12:21:51.030Z,27.17
2019-05-06T12:24:19.306Z,24.50
2019-05-06T12:26:47.572Z,24.32
2019-05-06T12:29:15.845Z,26.23
2019-05-06T12:31:45.400Z,27.62
2019-05-06T12:34:14.684Z,24.19
2019-05-06T12:36:43.114Z,22.88
2019-05-06T12:39:17.409Z,25.01
2019-05-06T12:41:50.034Z,27.15
2019-05-06T12:44:18.379Z,24.42
2019-05-06T12:46:53.014Z,22.68
2019-05-06T12:49:21.059Z,23.17
2019-05-06T12:51:49.362Z,23.73
2019-05-06T12:54:17.772Z,22.44
2019-05-06T12:56:48.536Z,21.89
2019-05-06T12:59:16.820Z,20.58
2019-05-06T13:01:45.928Z,21.21
2019-05-06T13:04:16.098Z,20.65
2019-05-06T13:06:46.118Z,21.42
2019-05-06T13:09:14.490Z,20.68
2019-05-06T13:11:43.291Z,21.11
2019-05-06T13:14:12.680Z,20.36
2019-05-06T13:16:42.508Z,20.37
2019-05-06T13:19:12.138Z,19.98
2019-05-06T13:21:42.323Z,19.06
2019-05-06T13:24:12.190Z,19.52
2019-05-06T13:26:43.108Z,19.34
2019-05-06T13:29:16.190Z,19.93
2019-05-06T13:31:44.505Z,18.22
2019-05-06T13:34:14.639Z,18.23
2019-05-06T13:36:43.195Z,16.97
2019-05-06T13:39:14.873Z,18.15
2019-05-06T13:41:42.738Z,17.96
2019-05-06T13:44:14.970Z,18.62
2019-05-06T13:46:44.940Z,18.50
2019-05-06T13:49:31.091Z,18.20
2019-05-06T13:52:07.155Z,17.98
2019-05-06T13:54:43.788Z,18.43
2019-05-06T13:57:24.089Z,18.00
2019-05-06T13:59:54.158Z,18.85
2019-05-06T14:02:27.012Z,18.57
2019-05-06T14:04:55.550Z,19.86
2019-05-06T14:07:24.556Z,19.58
2019-05-06T14:09:53.411Z,19.05
2019-05-06T14:12:23.268Z,18.50
2019-05-06T14:14:52.692Z,18.58
2019-05-06T14:17:22.358Z,17.95
2019-05-06T14:19:53.150Z,18.46
2019-05-06T14:22:23.340Z,18.65
2019-05-06T14:27:43.574Z,18.48
2019-05-06T14:30:32.152Z,18.41
2019-05-06T14:33:00.125Z,18.98
2019-05-06T14:35:28.439Z,18.92
2019-05-06T14:37:56.820Z,19.30
2019-05-06T14:40:26.884Z,18.67
2019-05-06T14:42:55.317Z,19.43
2019-05-06T14:45:23.592Z,19.51
2019-05-06T14:47:52.760Z,19.11
2019-05-06T14:50:31.724Z,19.13
2019-05-06T14:52:51.208Z,18.88
2019-05-06T14:55:22.529Z,19.04
2019-05-06T14:57:53.357Z,19.51
2019-05-06T15:00:23.049Z,19.74
2019-05-06T15:02:53.297Z,19.41
2019-05-06T15:05:22.689Z,18.82
2019-05-06T15:07:52.886Z,18.86
2019-05-06T15:10:24.041Z,18.48
2019-05-06T15:12:53.443Z,18.10
2019-05-06T15:15:22.889Z,17.59
2019-05-06T15:17:53.292Z,18.57
2019-05-06T15:20:22.599Z,18.61
2019-05-06T15:22:52.964Z,18.12
2019-05-06T15:25:22.188Z,18.00
2019-05-06T15:27:52.985Z,18.43
2019-05-06T15:30:25.345Z,18.61
2019-05-06T15:32:53.737Z,18.75
2019-05-06T15:35:23.669Z,18.43
2019-05-06T15:37:53.660Z,19.56
2019-05-06T15:40:32.071Z,19.20
2019-05-06T15:42:54.155Z,19.64
2019-05-06T15:45:22.629Z,19.60
2019-05-06T15:47:52.312Z,19.24
2019-05-06T15:50:23.023Z,19.55
2019-05-06T15:52:50.857Z,19.45
2019-05-06T15:55:19.423Z,19.34
2019-05-06T15:57:54.802Z,19.10
2019-05-06T16:00:23.649Z,18.69
2019-05-06T16:02:53.065Z,18.42
2019-05-06T16:05:26.151Z,18.72
2019-05-06T16:07:52.840Z,18.40
2019-05-06T16:10:22.559Z,18.81
2019-05-06T16:12:53.377Z,18.37
2019-05-06T16:15:24.445Z,18.09
2019-05-06T16:17:53.041Z,18.04
2019-05-06T16:20:22.184Z,18.62
2019-05-06T16:22:52.546Z,19.45
2019-05-06T16:25:20.894Z,19.77
2019-05-06T16:27:54.291Z,18.92
2019-05-06T16:30:24.122Z,19.71
2019-05-06T16:32:52.677Z,18.56
2019-05-06T16:35:22.929Z,18.60
2019-05-06T16:37:51.214Z,18.81
2019-05-06T16:40:19.776Z,17.94
2019-05-06T16:42:49.173Z,17.91
2019-05-06T16:45:18.879Z,17.75
2019-05-06T16:47:47.350Z,18.64
2019-05-06T16:50:19.179Z,18.06
2019-05-06T16:52:47.460Z,18.56
2019-05-06T16:55:18.321Z,18.99
2019-05-06T16:58:05.760Z,19.04
2019-05-06T17:00:35.864Z,18.16
2019-05-06T17:03:15.503Z,17.17
2019-05-06T17:06:01.898Z,17.14
2019-05-06T17:08:32.884Z,16.93
2019-05-06T17:11:04.357Z,17.61
2019-05-06T17:13:30.406Z,18.09
2019-05-06T17:15:58.720Z,18.40
2019-05-06T17:18:27.153Z,18.26
2019-05-06T17:20:55.540Z,18.29
2019-05-06T17:23:23.834Z,18.00
2019-05-06T17:25:52.256Z,18.39
2019-05-06T17:28:37.104Z,18.12
2019-05-06T17:31:07.100Z,18.08
2019-05-06T17:33:37.080Z,17.85
2019-05-06T17:36:07.560Z,18.33
2019-05-06T17:38:37.693Z,18.49
2019-05-06T17:41:06.044Z,18.45
2019-05-06T17:43:40.489Z,18.73
2019-05-06T17:46:06.728Z,18.11
2019-05-06T17:48:42.559Z,18.09
2019-05-06T17:51:13.602Z,17.49
2019-05-06T17:53:55.577Z,17.68
2019-05-06T17:56:23.873Z,17.75
2019-05-06T17:58:53.188Z,18.24
2019-05-06T18:01:26.204Z,18.98
2019-05-06T18:03:54.522Z,18.56
2019-05-06T18:06:23.047Z,18.18
2019-05-06T18:08:52.808Z,18.18
2019-05-06T18:11:22.415Z,18.46
2019-05-06T18:13:52.108Z,17.53
2019-05-06T18:16:22.294Z,17.58
2019-05-06T18:18:52.320Z,17.57
2019-05-06T18:21:22.784Z,17.04
2019-05-06T18:23:52.282Z,17.06
2019-05-06T18:26:22.799Z,17.78
2019-05-06T18:28:52.655Z,17.48
2019-05-06T18:31:22.112Z,17.25
2019-05-06T18:33:52.623Z,17.48
2019-05-06T18:36:22.720Z,17.10
2019-05-06T18:38:52.568Z,17.13
2019-05-06T18:41:23.403Z,17.40
2019-05-06T18:43:53.555Z,16.92
2019-05-06T18:46:23.034Z,17.02
2019-05-06T18:48:52.451Z,16.96
2019-05-06T18:51:22.353Z,16.93
2019-05-06T18:53:52.393Z,17.27
2019-05-06T18:56:22.458Z,17.62
2019-05-06T18:58:52.928Z,17.12
2019-05-06T19:01:23.253Z,17.20
2019-05-06T19:03:53.261Z,17.18
2019-05-06T19:06:23.238Z,17.14
2019-05-06T19:08:57.028Z,17.00
2019-05-06T19:11:25.332Z,17.53
2019-05-06T19:13:53.854Z,17.12
2019-05-06T19:16:22.445Z,16.71
2019-05-06T19:18:52.253Z,16.47
2019-05-06T19:21:24.250Z,16.76
2019-05-06T19:23:51.929Z,16.88
2019-05-06T19:26:22.785Z,16.76
2019-05-06T19:28:52.679Z,16.88
2019-05-06T19:31:23.041Z,16.85
2019-05-06T19:33:52.587Z,17.04
2019-05-06T19:36:23.314Z,17.37
2019-05-06T19:38:51.243Z,17.44
2019-05-06T19:41:19.512Z,17.70
2019-05-06T19:43:47.843Z,16.90
2019-05-06T19:46:16.113Z,16.72
2019-05-06T19:48:44.411Z,16.70
2019-05-06T19:51:12.718Z,16.38
2019-05-06T19:53:42.840Z,16.92
2019-05-06T19:56:12.349Z,17.47
2019-05-06T19:58:42.737Z,17.52
2019-05-06T20:01:18.055Z,17.29
2019-05-06T20:03:54.605Z,17.40
2019-05-06T20:06:43.119Z,16.95
2019-05-06T20:09:22.080Z,16.74
2019-05-06T20:11:51.980Z,16.91
2019-05-06T20:14:22.052Z,17.22
2019-05-06T20:16:58.433Z,17.10
2019-05-06T20:19:31.022Z,17.02
2019-05-06T20:22:01.857Z,16.94
2019-05-06T20:24:29.937Z,17.23
2019-05-06T20:26:58.221Z,17.25
2019-05-06T20:29:26.616Z,17.36
2019-05-06T20:31:54.901Z,17.06
2019-05-06T20:34:23.178Z,17.28
2019-05-06T20:36:52.898Z,16.77
2019-05-06T20:39:23.181Z,17.01
2019-05-06T20:41:51.533Z,16.59
2019-05-06T20:44:19.855Z,17.04
2019-05-06T20:46:48.110Z,16.40
2019-05-06T20:49:16.419Z,16.93
2019-05-06T20:51:44.803Z,16.28
2019-05-06T20:54:13.155Z,16.25
2019-05-06T20:56:42.387Z,16.27
2019-05-06T20:59:12.114Z,16.32
2019-05-06T21:01:42.492Z,15.84
2019-05-06T21:04:12.988Z,16.10
2019-05-06T21:06:42.708Z,16.62
2019-05-06T21:09:12.537Z,16.65
2019-05-06T21:11:47.024Z,16.77
2019-05-06T21:14:15.303Z,16.98
2019-05-06T21:16:43.599Z,17.16
2019-05-06T21:19:12.583Z,16.83
2019-05-06T21:21:43.136Z,16.36
2019-05-06T21:24:12.986Z,15.96
2019-05-06T21:26:42.529Z,16.30
2019-05-06T21:29:12.785Z,15.84
2019-05-06T21:31:44.188Z,16.12
2019-05-06T21:34:13.619Z,15.84
2019-05-06T21:36:42.402Z,15.22
2019-05-06T21:39:13.143Z,15.38
2019-05-06T21:41:42.790Z,14.71
2019-05-06T21:44:13.289Z,14.73
2019-05-06T21:46:42.881Z,15.34
2019-05-06T21:49:12.116Z,15.77
2019-05-06T21:51:42.617Z,15.37
2019-05-06T21:54:12.623Z,14.83
2019-05-06T21:56:42.482Z,14.99
2019-05-06T21:59:12.989Z,14.82
2019-05-06T22:01:43.043Z,14.84
2019-05-06T22:04:12.863Z,14.88
2019-05-06T22:06:42.903Z,14.30
2019-05-06T22:09:12.424Z,14.99
2019-05-06T22:11:42.428Z,14.76
2019-05-06T22:14:12.289Z,14.77
2019-05-06T22:16:40.856Z,15.07
2019-05-06T22:19:09.196Z,14.62
2019-05-06T22:21:42.626Z,14.50
2019-05-06T22:24:12.074Z,14.96
2019-05-06T22:26:40.486Z,15.13
2019-05-06T22:29:08.762Z,15.83
2019-05-06T22:31:37.034Z,15.84
2019-05-06T22:34:05.424Z,15.25
2019-05-06T22:36:33.718Z,15.43
2019-05-06T22:39:02.539Z,15.31
2019-05-06T22:41:32.599Z,15.01
2019-05-06T22:44:12.403Z,14.65
2019-05-06T22:46:32.947Z,14.73
2019-05-06T22:49:02.487Z,14.57
2019-05-06T22:51:32.304Z,14.63
2019-05-06T22:54:02.746Z,14.02
2019-05-06T22:56:32.501Z,13.85
2019-05-06T22:59:02.995Z,14.08
2019-05-06T23:01:54.346Z,14.28
2019-05-06T23:04:24.121Z,14.34
2019-05-06T23:06:52.408Z,14.01
2019-05-06T23:09:24.527Z,14.53
2019-05-06T23:11:50.712Z,13.64
2019-05-06T23:14:30.495Z,14.42
2019-05-06T23:16:48.984Z,13.93
2019-05-06T23:19:17.252Z,14.04
2019-05-06T23:21:45.529Z,13.71
2019-05-06T23:24:15.999Z,13.34
2019-05-06T23:26:44.286Z,14.19
2019-05-06T23:29:13.035Z,14.54
2019-05-06T23:31:42.455Z,13.73
2019-05-06T23:34:12.530Z,13.90
2019-05-06T23:36:57.217Z,15.03
2019-05-06T23:40:03.546Z,15.12
2019-05-06T23:43:08.187Z,14.57
2019-05-06T23:46:12.959Z,14.88
2019-05-06T23:49:18.673Z,14.97
2019-05-06T23:52:23.486Z,15.48
2019-05-06T23:55:28.375Z,14.63
2019-05-06T23:57:57.764Z,15.05
